createdAt,value
2018-05-11T00:00:51.125Z,12.92
2018-05-11T00:02:01.337Z,13.01
2018-05-11T00:03:11.498Z,13
2018-05-11T00:04:21.405Z,13.01
2018-05-11T00:05:31.358Z,12.92
2018-05-11T00:06:41.751Z,12.93
2018-05-11T00:07:51.666Z,13
2018-05-11T00:09:01.845Z,13.01
2018-05-11T00:10:11.975Z,12.95
2018-05-11T00:11:22.117Z,12.95
2018-05-11T00:12:32.271Z,12.88
2018-05-11T00:13:42.422Z,12.93
2018-05-11T00:14:52.746Z,12.9
2018-05-11T00:16:02.908Z,12.9
2018-05-11T00:17:13.167Z,12.82
2018-05-11T00:18:23.466Z,12.84
2018-05-11T00:19:33.637Z,12.93
2018-05-11T00:20:43.842Z,12.88
2018-05-11T00:21:53.740Z,12.82
2018-05-11T00:23:03.668Z,12.82
2018-05-11T00:24:13.880Z,12.82
2018-05-11T00:25:24.275Z,12.78
2018-05-11T00:26:34.466Z,12.77
2018-05-11T00:27:44.662Z,12.78
2018-05-11T00:28:54.795Z,12.74
2018-05-11T00:30:04.705Z,12.71
2018-05-11T00:31:14.917Z,12.64
2018-05-11T00:32:25.141Z,12.71
2018-05-11T00:33:35.392Z,12.66
2018-05-11T00:34:45.300Z,12.64
2018-05-11T00:35:55.168Z,12.63
2018-05-11T00:37:05.300Z,12.66
2018-05-11T00:38:15.432Z,12.7
2018-05-11T00:39:25.647Z,12.63
2018-05-11T00:40:35.803Z,12.63
2018-05-11T00:41:45.571Z,12.6
2018-05-11T00:42:55.754Z,12.63
2018-05-11T00:44:05.675Z,12.66
2018-05-11T00:45:15.818Z,12.59
2018-05-11T00:46:25.958Z,12.57
2018-05-11T00:47:36.110Z,12.62
2018-05-11T00:48:46.334Z,12.57
2018-05-11T00:49:56.476Z,12.53
2018-05-11T00:51:06.408Z,12.57
2018-05-11T00:52:16.882Z,12.56
2018-05-11T00:53:26.836Z,12.7
2018-05-11T00:54:36.980Z,12.62
2018-05-11T00:55:47.104Z,12.55
2018-05-11T00:56:57.226Z,12.53
2018-05-11T00:58:07.410Z,12.53
2018-05-11T00:59:17.576Z,12.55
2018-05-11T01:00:27.468Z,12.52
2018-05-11T01:01:37.676Z,12.52
2018-05-11T01:02:47.898Z,12.57
2018-05-11T01:03:59.057Z,12.5
2018-05-11T01:05:09.457Z,12.52
2018-05-11T01:06:19.632Z,12.59
2018-05-11T01:07:29.856Z,12.57
2018-05-11T01:08:40.054Z,12.59
2018-05-11T01:09:50.220Z,12.53
2018-05-11T01:10:59.828Z,12.53
2018-05-11T01:12:10.087Z,12.53
2018-05-11T01:13:20.360Z,12.56
2018-05-11T01:14:30.493Z,12.57
2018-05-11T01:15:40.621Z,12.52
2018-05-11T01:16:50.916Z,12.57
2018-05-11T01:18:00.901Z,12.52
2018-05-11T01:19:11.175Z,12.52
2018-05-11T01:20:21.327Z,12.41
2018-05-11T01:21:31.221Z,12.44
2018-05-11T01:22:41.356Z,12.37
2018-05-11T01:23:51.465Z,12.44
2018-05-11T01:25:01.602Z,12.35
2018-05-11T01:26:11.561Z,12.37
2018-05-11T01:27:21.529Z,12.45
2018-05-11T01:28:30.853Z,12.42
2018-05-11T01:29:41.151Z,12.38
2018-05-11T01:30:50.952Z,12.39
2018-05-11T01:32:01.099Z,12.42
2018-05-11T01:33:11.248Z,12.41
2018-05-11T01:34:21.362Z,12.39
2018-05-11T01:35:31.499Z,12.37
2018-05-11T01:36:41.635Z,12.34
2018-05-11T01:37:51.743Z,12.37
2018-05-11T01:39:02.009Z,12.38
2018-05-11T01:40:12.197Z,12.41
2018-05-11T01:41:22.361Z,12.41
2018-05-11T01:42:32.524Z,12.38
2018-05-11T01:43:42.747Z,12.34
2018-05-11T01:44:52.913Z,12.38
2018-05-11T01:46:02.840Z,12.38
2018-05-11T01:47:13.013Z,12.38
2018-05-11T01:48:23.154Z,12.37
2018-05-11T01:49:33.305Z,12.44
2018-05-11T01:50:43.070Z,12.45
2018-05-11T01:51:53.224Z,12.35
2018-05-11T01:53:03.392Z,12.37
2018-05-11T01:54:13.519Z,12.38
2018-05-11T01:55:23.696Z,12.38
2018-05-11T01:56:33.817Z,12.44
2018-05-11T01:57:43.995Z,12.38
2018-05-11T01:58:54.161Z,12.41
2018-05-11T02:00:04.354Z,12.39
2018-05-11T02:01:14.623Z,12.39
2018-05-11T02:02:24.858Z,12.37
2018-05-11T02:03:35.089Z,12.37
2018-05-11T02:04:45.253Z,12.39
2018-05-11T02:05:55.392Z,12.37
2018-05-11T02:07:05.522Z,12.31
2018-05-11T02:08:15.695Z,12.26
2018-05-11T02:09:25.846Z,12.29
2018-05-11T02:10:35.976Z,12.27
2018-05-11T02:11:46.154Z,12.29
2018-05-11T02:12:56.327Z,12.31
2018-05-11T02:14:06.214Z,12.2
2018-05-11T02:15:16.344Z,12.24
2018-05-11T02:16:26.565Z,12.31
2018-05-11T02:17:36.414Z,12.24
2018-05-11T02:18:46.740Z,12.17
2018-05-11T02:19:56.858Z,12.26
2018-05-11T02:21:07.001Z,12.26
2018-05-11T02:22:17.208Z,12.27
2018-05-11T02:23:27.338Z,12.23
2018-05-11T02:24:37.634Z,12.26
2018-05-11T02:25:47.905Z,12.22
2018-05-11T02:26:57.802Z,12.26
2018-05-11T02:28:07.949Z,12.24
2018-05-11T02:29:18.177Z,12.13
2018-05-11T02:30:28.334Z,12.11
2018-05-11T02:31:38.258Z,12.24
2018-05-11T02:32:48.030Z,12.23
2018-05-11T02:33:57.905Z,12.26
2018-05-11T02:35:08.136Z,12.24
2018-05-11T02:36:18.383Z,12.31
2018-05-11T02:37:28.573Z,12.22
2018-05-11T02:38:38.820Z,12.13
2018-05-11T02:39:49.073Z,12.29
2018-05-11T02:40:59.266Z,12.2
2018-05-11T02:42:09.186Z,12.27
2018-05-11T02:43:19.368Z,12.22
2018-05-11T02:44:29.617Z,12.15
2018-05-11T02:45:39.800Z,12.26
2018-05-11T02:46:49.977Z,12.27
2018-05-11T02:48:00.250Z,12.26
2018-05-11T02:49:10.489Z,12.26
2018-05-11T02:50:20.740Z,12.22
2018-05-11T02:51:30.505Z,12.13
2018-05-11T02:52:40.635Z,12.15
2018-05-11T02:53:50.841Z,12.26
2018-05-11T02:55:01.043Z,12.22
2018-05-11T02:56:11.262Z,12.26
2018-05-11T02:57:21.432Z,12.29
2018-05-11T02:58:31.588Z,12.23
2018-05-11T02:59:41.707Z,12.32
2018-05-11T03:00:51.878Z,12.38
2018-05-11T03:02:02.008Z,12.38
2018-05-11T03:03:12.153Z,12.44
2018-05-11T03:04:22.295Z,12.35
2018-05-11T03:05:32.501Z,12.35
2018-05-11T03:06:42.776Z,12.34
2018-05-11T03:07:52.983Z,12.35
2018-05-11T03:09:03.180Z,12.35
2018-05-11T03:10:13.338Z,12.32
2018-05-11T03:11:23.522Z,12.34
2018-05-11T03:12:33.352Z,12.35
2018-05-11T03:13:43.521Z,12.32
2018-05-11T03:14:53.409Z,12.31
2018-05-11T03:16:03.623Z,12.26
2018-05-11T03:17:13.550Z,12.34
2018-05-11T03:18:23.646Z,12.27
2018-05-11T03:19:34.135Z,12.32
2018-05-11T03:20:44.308Z,12.29
2018-05-11T03:21:54.431Z,12.32
2018-05-11T03:23:04.300Z,12.39
2018-05-11T03:24:14.314Z,12.38
2018-05-11T03:25:24.480Z,12.32
2018-05-11T03:26:34.606Z,12.35
2018-05-11T03:27:44.729Z,12.26
2018-05-11T03:28:55.041Z,12.23
2018-05-11T03:30:05.217Z,12.26
2018-05-11T03:31:15.488Z,12.35
2018-05-11T03:32:25.100Z,12.26
2018-05-11T03:33:34.988Z,12.24
2018-05-11T03:34:45.158Z,12.27
2018-05-11T03:35:55.340Z,12.29
2018-05-11T03:37:05.611Z,12.26
2018-05-11T03:38:15.795Z,12.37
2018-05-11T03:39:26.067Z,12.32
2018-05-11T03:40:35.875Z,12.35
2018-05-11T03:41:45.999Z,12.41
2018-05-11T03:42:55.884Z,12.38
2018-05-11T03:44:06.027Z,12.37
2018-05-11T03:45:15.939Z,12.35
2018-05-11T03:46:26.055Z,12.29
2018-05-11T03:47:36.188Z,12.38
2018-05-11T03:48:46.347Z,12.37
2018-05-11T03:49:56.596Z,12.34
2018-05-11T03:51:06.745Z,12.37
2018-05-11T03:52:16.964Z,12.35
2018-05-11T03:53:27.228Z,12.37
2018-05-11T03:54:37.412Z,12.38
2018-05-11T03:55:47.317Z,12.38
2018-05-11T03:56:57.114Z,12.35
2018-05-11T03:58:07.289Z,12.44
2018-05-11T03:59:17.409Z,12.37
2018-05-11T04:00:27.583Z,12.41
2018-05-11T04:01:37.713Z,12.41
2018-05-11T04:02:47.865Z,12.37
2018-05-11T04:03:58.006Z,12.39
2018-05-11T04:05:08.205Z,12.38
2018-05-11T04:06:18.420Z,12.37
2018-05-11T04:07:28.539Z,12.34
2018-05-11T04:08:38.849Z,12.42
2018-05-11T04:09:48.870Z,12.37
2018-05-11T04:10:59.182Z,12.38
2018-05-11T04:12:09.361Z,12.42
2018-05-11T04:13:19.764Z,12.37
2018-05-11T04:14:29.902Z,12.38
2018-05-11T04:15:40.083Z,12.34
2018-05-11T04:16:49.976Z,12.35
2018-05-11T04:17:59.752Z,12.27
2018-05-11T04:19:09.888Z,12.29
2018-05-11T04:20:20.012Z,12.31
2018-05-11T04:21:30.173Z,12.27
2018-05-11T04:22:40.309Z,12.38
2018-05-11T04:23:50.637Z,12.38
2018-05-11T04:25:00.826Z,12.37
2018-05-11T04:26:11.038Z,12.37
2018-05-11T04:27:21.197Z,12.37
2018-05-11T04:28:31.051Z,12.41
2018-05-11T04:29:41.244Z,12.44
2018-05-11T04:30:51.376Z,12.39
2018-05-11T04:32:01.537Z,12.34
2018-05-11T04:33:11.727Z,12.42
2018-05-11T04:34:21.847Z,12.41
2018-05-11T04:35:31.995Z,12.34
2018-05-11T04:36:42.126Z,12.41
2018-05-11T04:37:52.285Z,12.44
2018-05-11T04:39:02.464Z,12.42
2018-05-11T04:40:12.740Z,12.41
2018-05-11T04:41:22.635Z,12.37
2018-05-11T04:42:32.784Z,12.38
2018-05-11T04:43:42.650Z,12.35
2018-05-11T04:44:52.776Z,12.31
2018-05-11T04:46:02.918Z,12.34
2018-05-11T04:47:13.133Z,12.37
2018-05-11T04:48:23.025Z,12.29
2018-05-11T04:49:33.174Z,12.37
2018-05-11T04:50:43.312Z,12.41
2018-05-11T04:51:53.188Z,12.45
2018-05-11T04:53:03.340Z,12.42
2018-05-11T04:54:13.482Z,12.39
2018-05-11T04:55:23.731Z,12.44
2018-05-11T04:56:33.868Z,12.38
2018-05-11T04:57:44.085Z,12.41
2018-05-11T04:58:54.351Z,12.42
2018-05-11T05:00:04.493Z,12.44
2018-05-11T05:01:14.783Z,12.37
2018-05-11T05:02:24.974Z,12.42
2018-05-11T05:03:35.208Z,12.39
2018-05-11T05:04:45.357Z,12.38
2018-05-11T05:05:55.520Z,12.42
2018-05-11T05:07:05.675Z,12.37
2018-05-11T05:08:15.839Z,12.38
2018-05-11T05:09:25.990Z,12.41
2018-05-11T05:10:36.131Z,12.35
2018-05-11T05:11:46.303Z,12.38
2018-05-11T05:12:56.483Z,12.48
2018-05-11T05:14:06.723Z,12.37
2018-05-11T05:15:16.599Z,12.37
2018-05-11T05:16:26.478Z,12.47
2018-05-11T05:17:37.600Z,12.34
2018-05-11T05:18:47.738Z,12.39
2018-05-11T05:19:57.641Z,12.38
2018-05-11T05:21:07.782Z,12.37
2018-05-11T05:22:17.907Z,12.35
2018-05-11T05:23:28.168Z,12.37
2018-05-11T05:24:38.306Z,12.35
2018-05-11T05:25:48.492Z,12.37
2018-05-11T05:26:58.702Z,12.35
2018-05-11T05:28:08.905Z,12.42
2018-05-11T05:29:19.087Z,12.35
2018-05-11T05:30:29.266Z,12.44
2018-05-11T05:31:39.555Z,12.38
2018-05-11T05:32:49.446Z,12.35
2018-05-11T05:33:59.387Z,12.45
2018-05-11T05:35:09.522Z,12.39
2018-05-11T05:36:19.648Z,12.5
2018-05-11T05:37:29.774Z,12.48
2018-05-11T05:38:39.927Z,12.5
2018-05-11T05:39:50.243Z,12.53
2018-05-11T05:41:00.441Z,12.52
2018-05-11T05:42:10.596Z,12.55
2018-05-11T05:43:20.824Z,12.53
2018-05-11T05:44:31.004Z,12.53
2018-05-11T05:45:41.153Z,12.55
2018-05-11T05:46:51.433Z,12.64
2018-05-11T05:48:01.311Z,12.64
2018-05-11T05:49:11.443Z,12.59
2018-05-11T05:50:21.656Z,12.64
2018-05-11T05:51:31.847Z,12.62
2018-05-11T05:52:41.622Z,12.63
2018-05-11T05:53:51.845Z,12.72
2018-05-11T05:55:02.101Z,12.64
2018-05-11T05:56:12.359Z,12.62
2018-05-11T05:57:22.524Z,12.63
2018-05-11T05:58:32.987Z,12.68
2018-05-11T05:59:42.966Z,12.78
2018-05-11T06:00:53.145Z,12.81
2018-05-11T06:02:02.929Z,12.84
2018-05-11T06:03:13.058Z,12.84
2018-05-11T06:04:23.350Z,12.81
2018-05-11T06:05:33.501Z,12.88
2018-05-11T06:06:43.746Z,12.81
2018-05-11T06:07:53.916Z,12.8
2018-05-11T06:09:04.062Z,12.84
2018-05-11T06:10:14.219Z,12.97
2018-05-11T06:11:24.376Z,12.95
2018-05-11T06:12:34.257Z,12.97
2018-05-11T06:13:44.404Z,13.04
2018-05-11T06:14:54.536Z,12.97
2018-05-11T06:16:04.668Z,13.04
2018-05-11T06:17:14.870Z,13.06
2018-05-11T06:18:26.008Z,13.09
2018-05-11T06:19:36.159Z,13.03
2018-05-11T06:20:46.328Z,13.06
2018-05-11T06:21:56.600Z,13.08
2018-05-11T06:23:07.007Z,12.97
2018-05-11T06:24:17.162Z,12.97
2018-05-11T06:25:27.380Z,13.12
2018-05-11T06:26:37.519Z,13.09
2018-05-11T06:27:47.665Z,13.15
2018-05-11T06:28:58.151Z,13.11
2018-05-11T06:30:08.315Z,13.11
2018-05-11T06:31:18.215Z,13.12
2018-05-11T06:32:28.373Z,13.12
2018-05-11T06:33:38.509Z,13.13
2018-05-11T06:34:48.725Z,13.22
2018-05-11T06:35:59.006Z,13.29
2018-05-11T06:37:09.247Z,13.34
2018-05-11T06:38:19.483Z,13.31
2018-05-11T06:39:29.624Z,13.34
2018-05-11T06:40:39.943Z,13.34
2018-05-11T06:41:50.192Z,13.41
2018-05-11T06:43:00.418Z,13.4
2018-05-11T06:44:10.607Z,13.44
2018-05-11T06:45:20.566Z,13.46
2018-05-11T06:46:30.827Z,13.44
2018-05-11T06:47:40.840Z,13.51
2018-05-11T06:48:50.995Z,13.48
2018-05-11T06:50:01.135Z,13.49
2018-05-11T06:51:11.005Z,13.59
2018-05-11T06:52:21.180Z,13.67
2018-05-11T06:53:31.330Z,13.58
2018-05-11T06:54:41.509Z,13.66
2018-05-11T06:55:51.578Z,13.64
2018-05-11T06:57:01.978Z,13.59
2018-05-11T06:58:12.157Z,13.58
2018-05-11T06:59:22.403Z,13.71
2018-05-11T07:00:32.312Z,13.71
2018-05-11T07:01:42.340Z,13.77
2018-05-11T07:02:52.489Z,13.77
2018-05-11T07:04:02.701Z,13.77
2018-05-11T07:05:12.953Z,13.84
2018-05-11T07:06:23.154Z,13.84
2018-05-11T07:07:33.369Z,13.89
2018-05-11T07:08:43.676Z,13.82
2018-05-11T07:09:53.396Z,13.88
2018-05-11T07:11:03.274Z,13.89
2018-05-11T07:12:13.422Z,13.84
2018-05-11T07:13:23.558Z,13.85
2018-05-11T07:14:33.771Z,13.88
2018-05-11T07:15:43.959Z,13.85
2018-05-11T07:16:54.113Z,13.79
2018-05-11T07:18:04.233Z,13.89
2018-05-11T07:19:14.393Z,13.89
2018-05-11T07:20:24.716Z,14.04
2018-05-11T07:21:34.973Z,14.03
2018-05-11T07:22:45.167Z,13.99
2018-05-11T07:23:55.407Z,14.09
2018-05-11T07:25:05.245Z,14.19
2018-05-11T07:26:15.399Z,14.04
2018-05-11T07:27:25.286Z,14.1
2018-05-11T07:28:35.437Z,14.16
2018-05-11T07:29:45.383Z,14.14
2018-05-11T07:30:55.547Z,14.19
2018-05-11T07:32:05.732Z,14.24
2018-05-11T07:33:15.297Z,14.26
2018-05-11T07:34:25.564Z,14.25
2018-05-11T07:35:35.798Z,14.22
2018-05-11T07:36:45.711Z,14.28
2018-05-11T07:37:55.857Z,14.36
2018-05-11T07:39:06.014Z,14.4
2018-05-11T07:40:16.319Z,14.43
2018-05-11T07:41:26.537Z,14.37
2018-05-11T07:42:36.731Z,14.37
2018-05-11T07:43:46.328Z,14.45
2018-05-11T07:44:56.612Z,14.21
2018-05-11T07:46:06.773Z,14.22
2018-05-11T07:47:16.742Z,14.22
2018-05-11T07:48:26.705Z,14.24
2018-05-11T07:49:36.942Z,14.28
2018-05-11T07:50:47.368Z,14.22
2018-05-11T07:51:57.524Z,14.39
2018-05-11T07:53:07.799Z,14.43
2018-05-11T07:54:17.796Z,14.47
2018-05-11T07:55:27.724Z,14.56
2018-05-11T07:56:37.945Z,14.58
2018-05-11T07:57:48.090Z,14.52
2018-05-11T07:58:58.036Z,14.58
2018-05-11T08:00:08.207Z,14.56
2018-05-11T08:01:18.356Z,14.54
2018-05-11T08:02:28.516Z,14.54
2018-05-11T08:03:38.719Z,14.62
2018-05-11T08:04:48.880Z,14.6
2018-05-11T08:05:59.126Z,14.67
2018-05-11T08:07:09.435Z,14.65
2018-05-11T08:08:19.206Z,14.75
2018-05-11T08:09:29.180Z,14.81
2018-05-11T08:10:39.439Z,14.91
2018-05-11T08:11:49.399Z,15.03
2018-05-11T08:12:59.573Z,15.13
2018-05-11T08:14:09.907Z,15.23
2018-05-11T08:15:20.531Z,15.39
2018-05-11T08:16:30.450Z,15.5
2018-05-11T08:17:40.623Z,15.66
2018-05-11T08:18:50.768Z,15.78
2018-05-11T08:20:00.726Z,15.84
2018-05-11T08:21:10.657Z,16.16
2018-05-11T08:22:20.697Z,16.31
2018-05-11T08:23:30.977Z,16.43
2018-05-11T08:24:40.953Z,16.53
2018-05-11T08:25:51.108Z,16.74
2018-05-11T08:27:01.027Z,16.9
2018-05-11T08:28:10.998Z,17.06
2018-05-11T08:29:20.845Z,17.23
2018-05-11T08:30:31.025Z,17.47
2018-05-11T08:31:40.953Z,17.85
2018-05-11T08:32:52.172Z,18.02
2018-05-11T08:34:02.143Z,18.59
2018-05-11T08:35:12.153Z,18.97
2018-05-11T08:36:22.395Z,19.49
2018-05-11T08:37:32.566Z,20.05
2018-05-11T08:38:42.185Z,20.68
2018-05-11T08:39:52.404Z,21.08
2018-05-11T08:41:02.341Z,21.65
2018-05-11T08:42:12.493Z,22.12
2018-05-11T08:43:22.708Z,22.39
2018-05-11T08:44:33.041Z,23.02
2018-05-11T08:45:42.956Z,23.38
2018-05-11T08:46:53.094Z,23.68
2018-05-11T08:48:02.978Z,23.9
2018-05-11T08:49:13.135Z,24.19
2018-05-11T08:50:23.291Z,24.62
2018-05-11T08:51:33.456Z,24.6
2018-05-11T08:52:43.403Z,24.48
2018-05-11T08:53:53.553Z,24.6
2018-05-11T08:55:03.748Z,24.72
2018-05-11T08:56:13.930Z,24.87
2018-05-11T08:57:24.220Z,24.81
2018-05-11T08:58:34.383Z,24.6
2018-05-11T08:59:44.717Z,24.63
2018-05-11T09:00:54.902Z,24.76
2018-05-11T09:02:05.108Z,24.9
2018-05-11T09:03:15.368Z,25.1
2018-05-11T09:04:25.569Z,25.22
2018-05-11T09:05:35.775Z,25.29
2018-05-11T09:06:46.001Z,25.47
2018-05-11T09:07:56.194Z,25.81
2018-05-11T09:09:06.383Z,25.93
2018-05-11T09:10:17.422Z,25.81
2018-05-11T09:11:27.641Z,25.59
2018-05-11T09:12:37.912Z,25.09
2018-05-11T09:13:48.140Z,24.55
2018-05-11T09:14:58.389Z,24.29
2018-05-11T09:16:08.574Z,24.44
2018-05-11T09:17:18.848Z,24.44
2018-05-11T09:18:29.129Z,24.15
2018-05-11T09:19:39.084Z,24.09
2018-05-11T09:20:49.608Z,24.05
2018-05-11T09:21:59.884Z,24.1
2018-05-11T09:23:10.126Z,24.34
2018-05-11T09:24:20.290Z,24.66
2018-05-11T09:25:30.604Z,24.88
2018-05-11T09:26:40.794Z,25.06
2018-05-11T09:27:50.974Z,25.17
2018-05-11T09:29:01.078Z,25.22
2018-05-11T09:30:11.060Z,25.27
2018-05-11T09:31:20.963Z,25.69
2018-05-11T09:32:31.178Z,25.78
2018-05-11T09:33:41.476Z,25.94
2018-05-11T09:34:51.711Z,25.96
2018-05-11T09:36:03.344Z,25.77
2018-05-11T09:37:13.587Z,25.74
2018-05-11T09:38:23.895Z,25.44
2018-05-11T09:39:34.530Z,25.36
2018-05-11T09:40:45.134Z,25.5
2018-05-11T09:41:55.411Z,25.56
2018-05-11T09:43:05.690Z,25.66
2018-05-11T09:44:15.602Z,25.69
2018-05-11T09:45:25.771Z,25.87
2018-05-11T09:46:37.060Z,25.92
2018-05-11T09:47:47.235Z,25.88
2018-05-11T09:48:58.160Z,25.93
2018-05-11T09:50:08.452Z,25.56
2018-05-11T09:51:18.643Z,25.27
2018-05-11T09:52:28.732Z,24.73
2018-05-11T09:53:38.930Z,24.16
2018-05-11T09:54:49.245Z,23.79
2018-05-11T09:55:59.558Z,23.85
2018-05-11T09:57:09.441Z,24
2018-05-11T09:58:19.671Z,24.13
2018-05-11T09:59:29.842Z,24.43
2018-05-11T10:00:40.060Z,24.76
2018-05-11T10:01:50.441Z,25.17
2018-05-11T10:03:00.843Z,25.27
2018-05-11T10:04:11.019Z,25.4
2018-05-11T10:05:21.284Z,25.44
2018-05-11T10:06:31.495Z,25.52
2018-05-11T10:07:41.666Z,25.27
2018-05-11T10:08:51.987Z,25.07
2018-05-11T10:10:02.198Z,24.81
2018-05-11T10:11:12.393Z,24.6
2018-05-11T10:12:22.697Z,24.63
2018-05-11T10:13:32.889Z,24.34
2018-05-11T10:14:43.074Z,24.47
2018-05-11T10:15:52.985Z,24.54
2018-05-11T10:17:03.256Z,24.66
2018-05-11T10:18:13.519Z,24.65
2018-05-11T10:19:23.694Z,24.73
2018-05-11T10:20:33.851Z,24.78
2018-05-11T10:21:44.024Z,24.67
2018-05-11T10:22:54.326Z,24.6
2018-05-11T10:24:04.486Z,24.81
2018-05-11T10:25:15.073Z,25.03
2018-05-11T10:26:25.247Z,25.29
2018-05-11T10:27:35.569Z,25.47
2018-05-11T10:28:46.019Z,25.56
2018-05-11T10:29:56.219Z,25.54
2018-05-11T10:31:07.399Z,25.69
2018-05-11T10:32:17.609Z,25.92
2018-05-11T10:33:27.788Z,26.04
2018-05-11T10:34:38.080Z,26.19
2018-05-11T10:35:48.244Z,26.09
2018-05-11T10:36:58.490Z,25.88
2018-05-11T10:38:08.679Z,25.66
2018-05-11T10:39:18.878Z,25.34
2018-05-11T10:40:29.059Z,25.18
2018-05-11T10:41:39.237Z,25.15
2018-05-11T10:42:49.421Z,24.85
2018-05-11T10:43:59.737Z,24.7
2018-05-11T10:45:09.935Z,24.66
2018-05-11T10:46:20.121Z,24.5
2018-05-11T10:47:30.299Z,24.22
2018-05-11T10:48:41.044Z,23.92
2018-05-11T10:49:51.607Z,23.77
2018-05-11T10:51:01.854Z,23.55
2018-05-11T10:52:12.025Z,23.69
2018-05-11T10:53:22.039Z,23.79
2018-05-11T10:54:32.050Z,23.69
2018-05-11T10:55:42.337Z,23.75
2018-05-11T10:56:52.548Z,23.6
2018-05-11T10:58:02.737Z,23.4
2018-05-11T10:59:13.012Z,23.55
2018-05-11T11:00:23.267Z,23.64
2018-05-11T11:01:33.446Z,23.76
2018-05-11T11:02:43.646Z,23.79
2018-05-11T11:03:53.957Z,24.07
2018-05-11T11:05:04.190Z,24.25
2018-05-11T11:06:14.358Z,24.63
2018-05-11T11:07:24.592Z,24.94
2018-05-11T11:08:34.561Z,25.18
2018-05-11T11:09:44.744Z,25.4
2018-05-11T11:10:54.915Z,25.39
2018-05-11T11:12:05.108Z,25.02
2018-05-11T11:13:15.293Z,24.69
2018-05-11T11:14:25.568Z,24.62
2018-05-11T11:15:35.751Z,24.32
2018-05-11T11:16:45.969Z,24.01
2018-05-11T11:17:56.216Z,23.85
2018-05-11T11:19:06.442Z,23.63
2018-05-11T11:20:16.616Z,23.35
2018-05-11T11:21:26.781Z,23.02
2018-05-11T11:22:37.047Z,22.64
2018-05-11T11:23:47.235Z,22.35
2018-05-11T11:24:57.403Z,22.2
2018-05-11T11:26:08.015Z,22.05
2018-05-11T11:27:18.194Z,22.05
2018-05-11T11:28:28.525Z,22.15
2018-05-11T11:29:38.840Z,22.16
2018-05-11T11:30:49.022Z,22.09
2018-05-11T11:31:59.261Z,21.9
2018-05-11T11:33:09.477Z,21.78
2018-05-11T11:34:19.410Z,21.56
2018-05-11T11:35:29.866Z,21.37
2018-05-11T11:36:40.077Z,21.09
2018-05-11T11:37:50.229Z,20.88
2018-05-11T11:39:00.647Z,20.75
2018-05-11T11:40:10.856Z,20.63
2018-05-11T11:41:21.056Z,20.56
2018-05-11T11:42:31.230Z,20.51
2018-05-11T11:43:41.481Z,20.46
2018-05-11T11:44:51.686Z,20.53
2018-05-11T11:46:01.940Z,20.41
2018-05-11T11:47:12.111Z,20.3
2018-05-11T11:48:22.297Z,20.26
2018-05-11T11:49:32.568Z,20.17
2018-05-11T11:50:42.735Z,20.28
2018-05-11T11:51:52.920Z,20.26
2018-05-11T11:53:03.820Z,20.42
2018-05-11T11:54:13.987Z,20.48
2018-05-11T11:55:23.620Z,20.45
2018-05-11T11:56:33.947Z,20.6
2018-05-11T11:57:44.120Z,20.88
2018-05-11T11:58:54.495Z,21.27
2018-05-11T12:00:04.706Z,21.68
2018-05-11T12:01:15.856Z,21.98
2018-05-11T12:02:25.744Z,22.02
2018-05-11T12:03:35.920Z,22.03
2018-05-11T12:04:45.888Z,22.11
2018-05-11T12:05:56.238Z,22.06
2018-05-11T12:07:06.412Z,22.26
2018-05-11T12:08:16.316Z,22.31
2018-05-11T12:09:26.253Z,22.4
2018-05-11T12:10:36.568Z,22.63
2018-05-11T12:11:46.487Z,22.57
2018-05-11T12:12:56.689Z,22.53
2018-05-11T12:14:06.876Z,22.52
2018-05-11T12:15:17.055Z,22.65
2018-05-11T12:16:27.270Z,22.78
2018-05-11T12:17:37.456Z,23.01
2018-05-11T12:18:47.290Z,23.02
2018-05-11T12:19:57.515Z,23.02
2018-05-11T12:21:07.701Z,23.14
2018-05-11T12:22:17.500Z,23.16
2018-05-11T12:23:27.364Z,23.17
2018-05-11T12:24:37.539Z,23.31
2018-05-11T12:25:47.633Z,23.39
2018-05-11T12:26:57.965Z,23.38
2018-05-11T12:28:08.114Z,23.2
2018-05-11T12:29:18.283Z,23.18
2018-05-11T12:30:28.457Z,23.09
2018-05-11T12:31:38.619Z,23.02
2018-05-11T12:32:48.538Z,22.93
2018-05-11T12:33:58.709Z,22.65
2018-05-11T12:35:08.926Z,22.42
2018-05-11T12:36:19.106Z,22.2
2018-05-11T12:37:29.289Z,22.15
2018-05-11T12:38:39.440Z,21.91
2018-05-11T12:39:49.601Z,21.76
2018-05-11T12:40:59.999Z,21.64
2018-05-11T12:42:10.319Z,21.53
2018-05-11T12:43:20.268Z,21.49
2018-05-11T12:44:30.532Z,21.46
2018-05-11T12:45:40.787Z,21.23
2018-05-11T12:46:50.954Z,21.19
2018-05-11T12:48:01.134Z,21.08
2018-05-11T12:49:11.271Z,20.91
2018-05-11T12:50:22.712Z,20.91
2018-05-11T12:51:32.627Z,20.81
2018-05-11T12:52:42.819Z,20.9
2018-05-11T12:53:53.188Z,20.71
2018-05-11T12:55:03.331Z,20.64
2018-05-11T12:56:13.552Z,20.49
2018-05-11T12:57:23.734Z,20.43
2018-05-11T12:58:33.882Z,20.46
2018-05-11T12:59:44.057Z,20.34
2018-05-11T13:00:54.216Z,20.34
2018-05-11T13:02:04.121Z,20.3
2018-05-11T13:03:14.287Z,20.2
2018-05-11T13:04:24.431Z,20.17
2018-05-11T13:05:34.583Z,20.16
2018-05-11T13:06:44.539Z,20.14
2018-05-11T13:07:54.809Z,20.07
2018-05-11T13:09:04.956Z,20.03
2018-05-11T13:10:15.343Z,20.08
2018-05-11T13:11:25.482Z,19.95
2018-05-11T13:12:35.863Z,19.93
2018-05-11T13:13:46.040Z,20
2018-05-11T13:14:56.246Z,20.08
2018-05-11T13:16:06.535Z,20.11
2018-05-11T13:17:16.447Z,20.07
2018-05-11T13:18:27.591Z,20.12
2018-05-11T13:19:37.760Z,20.16
2018-05-11T13:20:48.141Z,20.01
2018-05-11T13:21:58.620Z,19.97
2018-05-11T13:23:08.869Z,20.03
2018-05-11T13:24:19.053Z,20.03
2018-05-11T13:25:29.241Z,20.08
2018-05-11T13:26:39.415Z,20.16
2018-05-11T13:27:49.633Z,20.14
2018-05-11T13:28:59.983Z,20.11
2018-05-11T13:30:10.209Z,20.04
2018-05-11T13:31:20.471Z,19.9
2018-05-11T13:32:30.639Z,19.93
2018-05-11T13:33:40.889Z,19.82
2018-05-11T13:34:50.770Z,19.85
2018-05-11T13:36:00.720Z,19.83
2018-05-11T13:37:11.158Z,19.7
2018-05-11T13:38:21.051Z,19.79
2018-05-11T13:39:31.227Z,19.79
2018-05-11T13:40:41.421Z,19.7
2018-05-11T13:41:51.593Z,19.73
2018-05-11T13:43:01.859Z,19.7
2018-05-11T13:44:12.047Z,19.65
2018-05-11T13:45:22.082Z,19.68
2018-05-11T13:46:32.348Z,19.61
2018-05-11T13:47:43.269Z,19.7
2018-05-11T13:48:53.414Z,19.85
2018-05-11T13:50:03.576Z,20.01
2018-05-11T13:51:13.782Z,19.89
2018-05-11T13:52:23.965Z,20.01
2018-05-11T13:53:34.175Z,20
2018-05-11T13:54:44.387Z,20
2018-05-11T13:55:54.579Z,20
2018-05-11T13:57:04.834Z,20.01
2018-05-11T13:58:15.066Z,19.98
2018-05-11T13:59:25.257Z,19.9
2018-05-11T14:00:35.454Z,19.95
2018-05-11T14:01:45.806Z,19.93
2018-05-11T14:02:55.991Z,19.9
2018-05-11T14:04:06.185Z,19.83
2018-05-11T14:05:16.381Z,19.9
2018-05-11T14:06:26.564Z,19.98
2018-05-11T14:07:36.762Z,19.97
2018-05-11T14:08:47.031Z,20.11
2018-05-11T14:09:57.265Z,20.19
2018-05-11T14:11:07.181Z,20.26
2018-05-11T14:12:17.434Z,20.39
2018-05-11T14:13:27.095Z,20.31
2018-05-11T14:14:37.258Z,20.35
2018-05-11T14:15:47.450Z,20.48
2018-05-11T14:16:57.659Z,20.38
2018-05-11T14:18:07.933Z,20.48
2018-05-11T14:19:17.796Z,20.43
2018-05-11T14:20:27.983Z,20.41
2018-05-11T14:21:38.163Z,20.46
2018-05-11T14:22:48.163Z,20.39
2018-05-11T14:23:58.444Z,20.41
2018-05-11T14:25:08.681Z,20.38
2018-05-11T14:26:18.882Z,20.36
2018-05-11T14:27:29.120Z,20.38
2018-05-11T14:28:38.922Z,20.3
2018-05-11T14:29:49.073Z,20.3
2018-05-11T14:30:58.890Z,20.38
2018-05-11T14:32:09.131Z,20.46
2018-05-11T14:33:19.370Z,20.48
2018-05-11T14:34:30.321Z,20.56
2018-05-11T14:35:40.603Z,20.54
2018-05-11T14:36:50.841Z,20.49
2018-05-11T14:38:01.052Z,20.46
2018-05-11T14:39:11.347Z,20.48
2018-05-11T14:40:21.611Z,20.42
2018-05-11T14:41:31.798Z,20.31
2018-05-11T14:42:42.021Z,20.31
2018-05-11T14:43:52.250Z,20.34
2018-05-11T14:45:02.477Z,20.31
2018-05-11T14:46:12.675Z,20.34
2018-05-11T14:47:22.882Z,20.28
2018-05-11T14:48:32.834Z,20.27
2018-05-11T14:49:43.370Z,19.95
2018-05-11T14:50:53.765Z,19.92
2018-05-11T14:52:03.945Z,19.92
2018-05-11T14:53:14.167Z,19.9
2018-05-11T14:54:24.018Z,19.93
2018-05-11T14:55:34.220Z,19.9
2018-05-11T14:56:44.389Z,19.9
2018-05-11T14:57:54.558Z,19.83
2018-05-11T14:59:04.762Z,19.8
2018-05-11T15:00:14.661Z,19.8
2018-05-11T15:01:25.063Z,19.83
2018-05-11T15:02:35.334Z,19.8
2018-05-11T15:03:45.500Z,19.74
2018-05-11T15:04:55.833Z,19.71
2018-05-11T15:06:05.485Z,19.63
2018-05-11T15:07:15.703Z,19.56